• Join FlightAware (Why Join?)
  • Login
  • US Flag 
07:42AM EDT


 

Airport Tracker/Info


-or-


 

Live Flight TrackerFlight Track Log ✈ AAL2222 ✈ 06-Aug-2013 ✈ KDFW - KATL

Flight Track Log - Related Links

Times and Time Zones

All times are in EDT time to prevent confusion due to time zone crossing. See the AAL2222 flight status page for this flight to view local times or setup timezone preferences in your user account.

Time Position Orientation Groundspeed Altitude Reporting Facility
EDT Latitude Longitude Course Direction KTS MPH feet Rate Location/Type
05:47PM 32.8833 -97.0333 62° Northeast 171 197 1,100  Level Dallas / Fort Worth TRACON
05:48PM 32.8667 -97.0333 180° South 181 208 2,000 1,620 Climbing Dallas / Fort Worth TRACON
05:49PM 32.8000 -97.0000 157° South 238 274 3,600 2,100 Climbing Dallas / Fort Worth TRACON
05:50PM 32.7533 -96.8834 77° East  Level FlightAware Approximate
05:50PM 32.7667 -96.9333 121° Southeast 265 305 6,200  Level Dallas / Fort Worth TRACON
05:51PM 32.7846 -96.7628 68° East  Level FlightAware Approximate
05:51PM 32.7667 -96.8333 90° East 296 341 8,500  Level Dallas / Fort Worth TRACON
05:52PM 32.8259 -96.6463 62° Northeast  Level FlightAware Approximate
05:53PM 32.8414 -96.6519 64° Northeast 339 390 11,200  Level Fort Worth Center
05:54PM 32.8908 -96.5278 65° Northeast 389 448 13,100 2,100 Climbing Fort Worth Center
05:55PM 32.9358 -96.4158 64° Northeast 408 470 15,500 2,160 Climbing Fort Worth Center
05:56PM 32.9786 -96.2717 70° East 408 470 17,500 1,680 Climbing Fort Worth Center
05:57PM 32.9961 -96.1428 81° East 423 487 18,900 1,560 Climbing Fort Worth Center
05:58PM 33.0194 -95.9839 80° East 444 511 20,700 1,620 Climbing Fort Worth Center
05:59PM 33.0386 -95.8472 80° East 452 520 22,200 1,500 Climbing Fort Worth Center
06:00PM 33.0594 -95.6783 82° East 466 536 23,700 1,440 Climbing Fort Worth Center
06:01PM 33.0783 -95.5392 81° East 466 536 25,100 1,380 Climbing Fort Worth Center
06:02PM 33.1242 -95.3944 69° East 461 531 26,500 900 Climbing Fort Worth Center
06:03PM 33.1694 -95.2444 70° East 467 537 27,000 600 Climbing Fort Worth Center
06:04PM 33.2128 -95.0969 71° East 467 537 27,700 900 Climbing Fort Worth Center
06:05PM 33.2581 -94.9467 70° East 472 543 28,800 1,200 Climbing Fort Worth Center
06:06PM 33.3031 -94.7964 70° East 472 543 30,200 1,200 Climbing Fort Worth Center
06:07PM 33.3478 -94.6483 70° East 472 543 31,200 900 Climbing Fort Worth Center
06:08PM 33.3925 -94.4975 70° East 472 543 32,100 900 Climbing Fort Worth Center
06:09PM 33.4369 -94.3517 70° East 472 543 33,000 360 Climbing Fort Worth Center
06:10PM 33.4792 -94.2033 71° East 472 543 32,900  Descending Fort Worth Center
06:11PM 33.5275 -94.0547 69° East 472 543 33,000  Climbing Fort Worth Center
06:12PM 33.5842 -93.9103 65° Northeast 472 543 32,900  Descending Fort Worth Center
06:13PM 33.6383 -93.7636 66° East 472 543 33,000  Climbing Fort Worth Center
06:14PM 33.7389 -93.4972 66° East 461 531 33,000 -60 Level Memphis Center
06:15PM 33.7947 -93.3517 65° Northeast 461 531 32,900  Descending Memphis Center
06:16PM 33.8500 -93.2111 65° Northeast 466 536 33,000  Climbing Memphis Center
06:17PM 33.9056 -93.0653 65° Northeast 466 536 33,000  Level Memphis Center
06:18PM 33.9608 -92.9167 66° East 466 536 33,000  Level Memphis Center
06:19PM 34.0158 -92.7731 65° Northeast 471 542 33,000  Level Memphis Center
06:20PM 34.0578 -92.6564 67° East 471 542 33,000  Level Memphis Center
06:21PM 34.1147 -92.4947 67° East 477 549 33,000  Level Memphis Center
06:22PM 34.1694 -92.3506 65° Northeast 472 543 33,000  Level Memphis Center
06:23PM 34.2239 -92.2036 66° East 472 543 33,000  Level Memphis Center
06:24PM 34.2758 -92.0589 66° East 472 543 33,000  Level Memphis Center
06:25PM 34.3300 -91.9139 66° East 472 543 33,000  Level Memphis Center
06:26PM 34.3819 -91.7664 67° East 472 543 33,000  Level Memphis Center
06:27PM 34.4419 -91.6064 66° East 472 543 33,000  Level Memphis Center
06:28PM 34.4914 -91.4608 68° East 472 543 33,000  Level Memphis Center
06:29PM 34.5467 -91.3178 65° Northeast 472 543 33,000  Level Memphis Center
06:30PM 34.6000 -91.1722 66° East 472 543 33,000 -60 Level Memphis Center
06:31PM 34.6508 -91.0236 67° East 472 543 32,900  Descending Memphis Center
06:32PM 34.7017 -90.8775 67° East 472 543 33,000  Climbing Memphis Center
06:33PM 34.7564 -90.7311 66° East 472 543 33,000 -60 Level Memphis Center
06:34PM 34.8089 -90.5872 66° East 467 537 32,900  Descending Memphis Center
06:35PM 34.8550 -90.4533 67° East 472 543 33,000  Climbing Memphis Center
06:36PM 34.9072 -90.3064 67° East 472 543 33,000  Level Memphis Center
06:37PM 34.9572 -90.1619 67° East 472 543 33,000  Level Memphis Center
06:38PM 35.0361 -90.0450 50° Northeast 440 506 33,000  Level Memphis Center
06:39PM 35.1569 -89.9558 31° Northeast 446 513 33,000  Level Memphis Center
06:40PM 35.1708 -89.8058 83° East 392 451 33,000  Level Memphis Center
06:41PM 35.1325 -89.6461 106° East 409 471 33,000  Level Memphis Center
06:42PM 35.0961 -89.4892 106° East 451 519 33,000  Level Memphis Center
06:43PM 35.0614 -89.3347 105° East 462 532 33,000  Level Memphis Center
06:44PM 35.0247 -89.1781 106° East 467 537 33,000  Level Memphis Center
06:45PM 34.9919 -89.0414 106° East 472 543 33,000 -60 Level Memphis Center
06:46PM 34.9589 -88.8875 105° East 472 543 32,900  Descending Memphis Center
06:47PM 34.9236 -88.7361 106° East 466 536 33,000  Climbing Memphis Center
06:48PM 34.8881 -88.5797 105° East 466 536 33,000  Level Memphis Center
06:49PM 34.8525 -88.4339 107° East 465 535 33,000  Level Memphis Center
06:50PM 34.8167 -88.2803 106° East 465 535 33,000  Level Memphis Center
06:51PM 34.7761 -88.1044 106° East 471 542 33,000  Level Memphis Center
06:52PM 34.7419 -87.9511 105° East 476 548 33,000  Level Memphis Center
06:53PM 34.7075 -87.7981 105° East 469 540 33,000  Level Memphis Center
06:54PM 34.6667 -87.6453 108° East 478 550 33,000  Level Memphis Center
06:57PM 34.5944 -87.2914 104° East 484 557 33,000  Level Atlanta Center
06:58PM 34.5631 -87.1314 103° East 484 557 33,000  Level Atlanta Center
06:59PM 34.5314 -86.9761 104° East 474 545 33,000  Level Atlanta Center
07:00PM 34.5017 -86.8189 103° East 474 545 33,000 -300 Level Atlanta Center
07:01PM 34.4719 -86.6592 103° East 474 545 32,400 -900 Descending Atlanta Center
07:02PM 34.4375 -86.5019 105° East 474 545 31,200 -1,320 Descending Atlanta Center
07:03PM 34.4008 -86.3447 106° East 474 545 29,800 -1,500 Descending Atlanta Center
07:04PM 34.3642 -86.1878 106° East 479 551 28,300 -1,560 Descending Atlanta Center
07:05PM 34.3292 -86.0336 105° East 479 551 26,700 -1,620 Descending Atlanta Center
07:06PM 34.2919 -85.8767 106° East 479 551 25,200 -1,620 Descending Atlanta Center
07:07PM 34.2564 -85.7303 106° East 465 535 23,500 -1,680 Descending Atlanta Center
07:08PM 34.2211 -85.5661 105° East 457 526 21,900 -1,800 Descending Atlanta Center
07:09PM 34.1853 -85.4225 107° East 457 526 20,000 -2,340 Descending Atlanta Center
07:10PM 34.1511 -85.2814 106° East 445 512 17,300 -2,400 Descending Atlanta Center
07:11PM 34.1192 -85.1478 106° East 428 493 15,300 -1,680 Descending Atlanta Center
07:12PM 34.0886 -85.0322 108° East 394 453 14,000 -660 Descending Atlanta Center
07:13PM 34.0247 -84.9411 130° Southeast 349 402 14,000 -600 Level Atlanta Center
07:14PM 33.9522 -84.8503 134° Southeast 365 420 12,800 -1,020 Descending Atlanta Center
07:15PM 33.8839 -84.7669 135° Southeast 365 420 12,000 -420 Descending Atlanta Center
07:16PM 33.8197 -84.6839 133° Southeast 340 391 12,000  Level Atlanta Center
07:17PM 33.7636 -84.6136 134° Southeast 314 361 12,000 -240 Level Atlanta Center
07:17PM 33.7333 -84.5833 140° Southeast 262 302 11,700 -1,440 Descending Atlanta TRACON
07:18PM 33.7333 -84.5000 90° East 253 291 9,900 -1,980 Descending Atlanta TRACON
07:19PM 33.7333 -84.4167 90° East 254 292 8,000 -1,920 Descending Atlanta TRACON
07:20PM 33.7333 -84.3500 90° East 241 277 6,300 -1,620 Descending Atlanta TRACON
07:21PM 33.7167 -84.2833 107° East 208 239 4,800 -1,500 Descending Atlanta TRACON
07:22PM 33.6833 -84.2667 157° South 180 207 3,400 -1,200 Descending Atlanta TRACON
07:23PM 33.6500 -84.3167 231° Southwest 170 196 2,400 -900 Descending Atlanta TRACON
07:24PM 33.6500 -84.3667 270° West 148 170 1,600 -840 Descending Atlanta TRACON
07:26PM 33.6333 -84.4167 255° West  Level FlightAware Approximate